Time;durP1;ratioP1;P1;durP2;ratioP2;P2;SDS_P1;SDS_P2;PMS_P1;PMS_P2;Temp;Humidity;BMP_temperature;BMP_pressure;BME280_temperature;BME280_humidity;BME280_pressure;Samples;Min_cycle;Max_cycle;Signal;HPM_P1;HPM_P2
2021/08/23 00:01:06;;;;;;;3.67;1.92;;;;;;;14.25;100.00;95573.84;5012404;28;20097;-56
2021/08/23 00:03:34;;;;;;;3.80;2.08;;;;;;;14.27;100.00;95569.00;5010952;28;20025;-57
2021/08/23 00:06:06;;;;;;;4.28;1.80;;;;;;;14.31;100.00;95570.03;5011115;28;20028;-55
2021/08/23 00:08:34;;;;;;;3.05;1.58;;;;;;;14.35;100.00;95552.25;5012185;28;20041;-58
2021/08/23 00:11:07;;;;;;;3.85;1.90;;;;;;;14.38;100.00;95556.28;5012346;28;20025;-58
2021/08/23 00:13:36;;;;;;;4.05;2.00;;;;;;;14.39;100.00;95547.91;5010763;28;20026;-54
2021/08/23 00:16:04;;;;;;;3.63;2.00;;;;;;;14.40;100.00;95538.75;5011520;28;20428;-55
2021/08/23 00:18:29;;;;;;;4.63;1.90;;;;;;;14.42;100.00;95531.19;5012549;28;20481;-56
2021/08/23 00:21:01;;;;;;;3.10;1.77;;;;;;;14.42;100.00;95524.97;5011957;28;20036;-56
2021/08/23 00:23:49;;;;;;;1.90;1.55;;;;;;;14.43;100.00;95507.72;5011963;28;20061;-55
2021/08/23 00:26:19;;;;;;;4.88;1.90;;;;;;;14.45;100.00;95511.00;5012086;28;20060;-57
2021/08/23 00:28:47;;;;;;;3.15;2.00;;;;;;;14.40;100.00;95506.41;5010766;28;20045;-57
2021/08/23 00:31:15;;;;;;;5.78;1.60;;;;;;;14.36;100.00;95502.66;5011832;28;20485;-56
2021/08/23 00:33:43;;;;;;;2.30;1.50;;;;;;;14.31;100.00;95508.06;5011934;28;20057;-56
2021/08/23 00:36:12;;;;;;;3.15;2.38;;;;;;;14.29;100.00;95494.06;5017300;28;20021;-57
2021/08/23 00:38:37;;;;;;;4.63;2.17;;;;;;;14.32;100.00;95501.59;5010735;28;20217;-58
2021/08/23 00:41:03;;;;;;;5.55;2.05;;;;;;;14.30;100.00;95508.34;5012032;28;20491;-57
2021/08/23 00:43:32;;;;;;;3.75;1.75;;;;;;;14.23;100.00;95505.97;5010443;28;20030;-56
2021/08/23 00:46:06;;;;;;;4.10;2.22;;;;;;;14.18;100.00;95505.97;5018523;28;20571;-57
2021/08/23 00:48:43;;;;;;;4.13;2.08;;;;;;;14.10;100.00;95510.06;5031789;28;20423;-57
2021/08/23 00:51:15;;;;;;;2.67;1.60;;;;;;;14.05;100.00;95517.38;5030339;28;20025;-57
2021/08/23 00:53:48;;;;;;;4.40;2.10;;;;;;;13.99;100.00;95527.34;5029721;28;20361;-58
2021/08/23 00:56:15;;;;;;;4.80;1.88;;;;;;;13.95;100.00;95528.97;5031369;28;20026;-57
2021/08/23 00:58:50;;;;;;;7.85;1.90;;;;;;;13.88;100.00;95536.53;5031671;28;20022;-55
2021/08/23 01:01:37;;;;;;;4.25;1.95;;;;;;;13.83;100.00;95533.88;5030023;28;20029;-58
2021/08/23 01:04:09;;;;;;;2.08;1.70;;;;;;;13.77;100.00;95541.13;5031615;28;20117;-57
2021/08/23 01:06:48;;;;;;;3.22;1.50;;;;;;;13.73;100.00;95536.59;5031315;28;20029;-55
2021/08/23 01:09:18;;;;;;;4.15;1.80;;;;;;;13.70;100.00;95543.31;5031389;28;20025;-52
2021/08/23 01:11:51;;;;;;;3.30;1.80;;;;;;;13.67;100.00;95548.44;5029811;28;20025;-57
2021/08/23 01:14:19;;;;;;;6.80;2.00;;;;;;;13.64;100.00;95547.91;5029914;28;20366;-57
2021/08/23 01:16:47;;;;;;;3.70;1.67;;;;;;;13.62;100.00;95549.25;5031239;28;20112;-57
2021/08/23 01:19:14;;;;;;;4.18;2.10;;;;;;;13.60;100.00;95548.72;5029507;28;20026;-59
2021/08/23 01:21:47;;;;;;;7.05;1.90;;;;;;;13.59;100.00;95556.00;5029922;28;20171;-56
2021/08/23 01:24:13;;;;;;;4.53;2.10;;;;;;;13.55;100.00;95557.59;5031006;28;20056;-57
2021/08/23 01:26:48;;;;;;;2.92;1.75;;;;;;;13.52;100.00;95555.47;5030361;28;20037;-57
2021/08/23 01:29:13;;;;;;;3.28;2.10;;;;;;;13.50;100.00;95554.13;5035003;28;20021;-56
2021/08/23 01:31:54;;;;;;;6.63;1.90;;;;;;;13.48;100.00;95550.91;5034989;28;20074;-57
2021/08/23 01:34:21;;;;;;;3.42;1.83;;;;;;;13.43;100.00;95554.41;5034895;28;20045;-55
2021/08/23 01:36:46;;;;;;;4.13;2.10;;;;;;;13.43;100.00;95554.41;5034750;28;20021;-55
2021/08/23 01:39:14;;;;;;;2.75;1.88;;;;;;;13.40;100.00;95546.06;5016749;28;20489;-56
2021/08/23 01:41:40;;;;;;;4.40;2.20;;;;;;;13.37;100.00;95546.63;5015025;28;20454;-56
2021/08/23 01:44:08;;;;;;;3.08;2.10;;;;;;;13.36;100.00;95543.13;5014886;28;20033;-56
2021/08/23 01:46:36;;;;;;;3.10;1.85;;;;;;;13.34;100.00;95540.69;5013917;28;20139;-54
2021/08/23 01:49:08;;;;;;;2.55;1.95;;;;;;;13.32;100.00;95534.75;5014956;28;20021;-55
2021/08/23 01:51:35;;;;;;;2.03;1.83;;;;;;;13.29;100.00;95529.94;5014981;28;20022;-56
2021/08/23 01:54:06;;;;;;;3.00;1.90;;;;;;;13.28;100.00;95536.41;5036133;28;20053;-59
2021/08/23 01:56:38;;;;;;;5.35;2.20;;;;;;;13.24;100.00;95537.19;5020487;28;20040;-58
2021/08/23 01:59:12;;;;;;;4.43;1.65;;;;;;;13.22;100.00;95532.09;5014641;28;20072;-60
2021/08/23 02:01:38;;;;;;;6.93;1.88;;;;;;;13.21;100.00;95529.66;5014686;28;20337;-60
2021/08/23 02:04:09;;;;;;;5.53;2.30;;;;;;;13.18;100.00;95525.59;5013649;28;20038;-57
2021/08/23 02:06:37;;;;;;;2.55;1.83;;;;;;;13.15;100.00;95520.78;5014652;28;20021;-60
2021/08/23 02:09:09;;;;;;;4.13;2.20;;;;;;;13.12;100.00;95524.00;5014651;28;20535;-57
2021/08/23 02:11:40;;;;;;;2.53;1.50;;;;;;;13.05;100.00;95518.09;5014469;28;20037;-57
2021/08/23 02:14:07;;;;;;;3.38;2.03;;;;;;;12.98;100.00;95512.97;5013074;28;20500;-57
2021/08/23 02:16:33;;;;;;;5.93;2.10;;;;;;;12.93;100.00;95504.91;5014438;28;20109;-60
2021/08/23 02:19:01;;;;;;;2.55;1.90;;;;;;;12.88;100.00;95499.53;5014421;28;20465;-60
2021/08/23 02:21:26;;;;;;;6.20;2.03;;;;;;;12.83;100.00;95491.47;5014298;28;20033;-58
2021/08/23 02:24:01;;;;;;;3.97;1.50;;;;;;;12.77;100.00;95490.66;5014136;28;20473;-57
2021/08/23 02:26:45;;;;;;;3.25;1.70;;;;;;;12.70;100.00;95483.94;5021317;28;20025;-57
2021/08/23 02:29:14;;;;;;;2.88;2.10;;;;;;;12.62;100.00;95481.78;5032551;28;20032;-59
2021/08/23 02:31:49;;;;;;;3.08;1.55;;;;;;;12.52;100.00;95477.22;5032598;28;20057;-59
2021/08/23 02:34:16;;;;;;;2.47;1.52;;;;;;;12.43;100.00;95468.06;5033684;28;20025;-58
2021/08/23 02:36:48;;;;;;;5.05;1.98;;;;;;;12.37;100.00;95463.72;5033268;28;20028;-59
2021/08/23 02:39:15;;;;;;;4.65;2.17;;;;;;;12.32;100.00;95459.19;5014978;28;20026;-57
2021/08/23 02:41:49;;;;;;;2.67;1.90;;;;;;;12.26;100.00;95459.41;5013926;28;20055;-58
2021/08/23 02:44:17;;;;;;;5.30;2.15;;;;;;;12.17;100.00;95451.91;5013885;28;20025;-59
2021/08/23 02:46:42;;;;;;;3.58;2.10;;;;;;;12.15;100.00;95466.66;5013767;28;20026;-58
2021/08/23 02:49:16;;;;;;;3.83;1.95;;;;;;;12.11;100.00;95454.84;5012465;28;20057;-56
2021/08/23 02:51:43;;;;;;;5.25;1.80;;;;;;;12.07;100.00;95451.88;5013714;28;20131;-55
2021/08/23 02:54:09;;;;;;;5.82;1.90;;;;;;;12.05;100.00;95439.81;5013136;28;20056;-55
2021/08/23 02:56:39;;;;;;;5.80;2.22;;;;;;;12.03;100.00;95434.66;5013533;28;20361;-59
2021/08/23 02:59:08;;;;;;;3.08;2.08;;;;;;;11.98;100.00;95440.03;5012354;28;20049;-57
2021/08/23 03:01:36;;;;;;;3.72;2.13;;;;;;;11.95;100.00;95443.25;5013548;28;20036;-58
2021/08/23 03:04:10;;;;;;;4.45;2.00;;;;;;;11.85;100.00;95433.31;5013478;28;20113;-59
2021/08/23 03:06:38;;;;;;;6.00;2.72;;;;;;;11.78;100.00;95430.03;5013490;28;20382;-58
2021/08/23 03:09:04;;;;;;;3.63;1.95;;;;;;;11.74;100.00;95431.63;5013462;28;20025;-59
2021/08/23 03:11:44;;;;;;;5.03;1.83;;;;;;;11.68;100.00;95413.06;5013346;28;20325;-57
2021/08/23 03:14:21;;;;;;;3.25;2.10;;;;;;;11.59;100.00;95413.56;5013216;28;20431;-58
2021/08/23 03:16:47;;;;;;;4.63;1.63;;;;;;;11.55;100.00;95404.44;5011909;28;20025;-57
2021/08/23 03:19:12;;;;;;;3.70;2.00;;;;;;;11.52;100.00;95412.22;5013171;28;20018;-56
2021/08/23 03:21:43;;;;;;;5.97;2.22;;;;;;;11.47;100.00;95396.09;5013129;28;20104;-56
2021/08/23 03:24:08;;;;;;;4.57;2.08;;;;;;;11.44;100.00;95392.06;5013024;28;20114;-56
2021/08/23 03:26:38;;;;;;;9.52;2.20;;;;;;;11.40;100.00;95382.94;5013091;28;20120;-58
2021/08/23 03:29:04;;;;;;;3.50;2.15;;;;;;;11.35;100.00;95380.22;5025930;28;20029;-56
2021/08/23 03:31:34;;;;;;;3.05;2.25;;;;;;;11.33;100.00;95380.50;5029973;28;20033;-56
2021/08/23 03:34:00;;;;;;;3.40;2.17;;;;;;;11.28;100.00;95375.09;5020027;28;20049;-58
2021/08/23 03:36:28;;;;;;;4.15;1.90;;;;;;;11.24;100.00;95375.88;5012949;28;20432;-59
2021/08/23 03:39:10;;;;;;;2.85;1.92;;;;;;;11.16;100.00;95373.69;5011285;28;20026;-58
2021/08/23 03:41:39;;;;;;;2.37;1.70;;;;;;;11.09;100.00;95373.16;5019625;28;20306;-59
2021/08/23 03:44:11;;;;;;;4.70;1.88;;;;;;;11.05;100.00;95367.47;5030408;28;20400;-59
2021/08/23 03:46:39;;;;;;;2.65;1.98;;;;;;;11.06;100.00;95363.72;5021701;28;20574;-57
2021/08/23 03:49:07;;;;;;;4.60;1.95;;;;;;;11.08;100.00;95363.50;5011560;28;20026;-59
2021/08/23 03:51:35;;;;;;;5.38;1.75;;;;;;;11.02;100.00;95352.72;5011291;28;20560;-57
2021/08/23 03:54:04;;;;;;;3.92;2.10;;;;;;;10.98;100.00;95350.84;5010075;28;20082;-56
2021/08/23 03:56:31;;;;;;;3.53;1.92;;;;;;;10.99;100.00;95352.47;5011754;28;20029;-56
2021/08/23 03:58:59;;;;;;;3.60;1.80;;;;;;;10.97;100.00;95346.56;5011171;28;20026;-58
2021/08/23 04:01:45;;;;;;;5.13;2.03;;;;;;;10.89;100.00;95347.03;5012859;28;20026;-58
2021/08/23 04:04:13;;;;;;;6.03;2.10;;;;;;;10.85;100.00;95351.28;5012361;28;20033;-56
2021/08/23 04:06:45;;;;;;;6.05;2.10;;;;;;;10.79;100.00;95346.97;5011500;28;20083;-59
2021/08/23 04:09:13;;;;;;;3.50;2.00;;;;;;;10.76;100.00;95344.84;5016494;28;20455;-58
2021/08/23 04:11:39;;;;;;;4.60;2.22;;;;;;;10.73;100.00;95341.56;5031205;28;20037;-55
2021/08/23 04:14:05;;;;;;;4.65;2.20;;;;;;;10.69;100.00;95331.66;5029841;28;20021;-54
2021/08/23 04:16:33;;;;;;;5.30;1.90;;;;;;;10.64;100.00;95343.16;5029720;28;20051;-58
2021/08/23 04:19:04;;;;;;;3.05;1.88;;;;;;;10.59;100.00;95342.31;5029441;28;20116;-59
2021/08/23 04:21:34;;;;;;;4.10;1.75;;;;;;;10.54;100.00;95332.38;5029727;28;20120;-55
2021/08/23 04:24:06;;;;;;;3.67;1.90;;;;;;;10.51;100.00;95329.38;5030996;28;20029;-52
2021/08/23 04:26:43;;;;;;;4.03;2.60;;;;;;;10.52;100.00;95321.09;5030952;28;20033;-55
2021/08/23 04:29:11;;;;;;;4.32;2.90;;;;;;;10.48;100.00;95328.03;5022844;28;20442;-54
2021/08/23 04:31:37;;;;;;;4.22;2.83;;;;;;;10.50;100.00;95322.41;5011276;28;20045;-55
2021/08/23 04:34:11;;;;;;;6.15;2.75;;;;;;;10.52;100.00;95320.28;5009865;28;20030;-58
2021/08/23 04:36:38;;;;;;;2.40;2.20;;;;;;;10.50;100.00;95309.84;5017980;28;20034;-57
2021/08/23 04:39:09;;;;;;;2.75;2.25;;;;;;;10.48;100.00;95305.81;5010767;28;20045;-57
2021/08/23 04:41:41;;;;;;;2.70;2.15;;;;;;;10.51;100.00;95308.78;5011060;28;20120;-55
2021/08/23 04:44:10;;;;;;;3.50;2.28;;;;;;;10.51;100.00;95300.72;4993441;28;20069;-59
2021/08/23 04:46:39;;;;;;;4.45;2.17;;;;;;;10.53;100.00;95306.66;5011077;28;20370;-58
2021/08/23 04:49:07;;;;;;;3.35;2.13;;;;;;;10.50;100.00;95298.31;5010590;28;20398;-57
2021/08/23 04:51:35;;;;;;;3.55;1.90;;;;;;;10.47;100.00;95302.31;5010980;28;20026;-57
2021/08/23 04:54:03;;;;;;;7.40;2.13;;;;;;;10.45;100.00;95309.81;5011631;28;20060;-56
2021/08/23 04:56:46;;;;;;;3.00;2.00;;;;;;;10.43;100.00;95307.41;5030990;28;20025;-59
2021/08/23 04:59:11;;;;;;;6.57;2.10;;;;;;;10.40;100.00;95299.88;5030867;28;20029;-60
2021/08/23 05:01:42;;;;;;;4.18;1.98;;;;;;;10.40;100.00;95297.19;5026084;28;20088;-58
2021/08/23 05:04:10;;;;;;;3.03;2.13;;;;;;;10.40;100.00;95310.56;5017563;28;20036;-58
2021/08/23 05:06:35;;;;;;;5.40;2.05;;;;;;;10.49;100.00;95305.53;5016803;28;20448;-59
2021/08/23 05:09:09;;;;;;;6.10;2.20;;;;;;;10.60;100.00;95299.19;5016780;28;20388;-57
2021/08/23 05:11:38;;;;;;;4.63;2.30;;;;;;;10.73;100.00;95297.91;5022719;28;20032;-56
2021/08/23 05:14:06;;;;;;;5.47;2.53;;;;;;;10.85;100.00;95295.00;5022371;28;20025;-57
2021/08/23 05:16:32;;;;;;;4.75;2.30;;;;;;;10.97;100.00;95292.94;5020600;28;20126;-58
2021/08/23 05:19:00;;;;;;;2.17;1.80;;;;;;;11.08;100.00;95281.19;5031853;28;20033;-59
2021/08/23 05:21:36;;;;;;;3.75;1.98;;;;;;;11.23;100.00;95277.75;5015434;28;20392;-59
2021/08/23 05:24:04;;;;;;;4.80;2.30;;;;;;;11.36;100.00;95274.56;5025203;28;20067;-58
2021/08/23 05:26:30;;;;;;;4.35;2.38;;;;;;;11.51;100.00;95265.75;5020034;28;20125;-59
2021/08/23 05:28:55;;;;;;;8.05;2.63;;;;;;;11.66;100.00;95257.72;5021572;28;20021;-59
2021/08/23 05:31:30;;;;;;;3.85;2.50;;;;;;;11.81;100.00;95260.44;5017763;28;20026;-59
2021/08/23 05:33:58;;;;;;;4.63;2.58;;;;;;;11.94;100.00;95256.44;5027080;28;20021;-60
2021/08/23 05:36:24;;;;;;;3.63;2.78;;;;;;;12.09;100.00;95255.63;5032390;28;20032;-60
2021/08/23 05:38:52;;;;;;;8.15;3.20;;;;;;;12.25;100.00;95256.38;5035272;28;20025;-58
2021/08/23 05:41:17;;;;;;;7.05;3.45;;;;;;;12.43;100.00;95250.47;5034767;28;20033;-58
2021/08/23 05:43:43;;;;;;;10.20;3.78;;;;;;;12.61;100.00;95241.81;5023929;28;20030;-57
2021/08/23 05:46:15;;;;;;;13.45;4.90;;;;;;;12.78;100.00;95239.59;5026065;28;20022;-58
2021/08/23 05:48:43;;;;;;;17.77;5.63;;;;;;;12.96;100.00;95232.00;5024775;28;20028;-58
2021/08/23 05:51:14;;;;;;;14.95;4.70;;;;;;;13.11;100.00;95231.94;5037747;28;20040;-59
2021/08/23 05:53:39;;;;;;;9.02;4.47;;;;;;;13.28;100.00;95232.41;5027834;28;20076;-60
2021/08/23 05:56:13;;;;;;;7.35;4.07;;;;;;;13.43;100.00;95228.81;5018731;28;20029;-56
2021/08/23 05:58:42;;;;;;;5.90;4.30;;;;;;;13.57;100.00;95223.63;5020520;28;20033;-56
2021/08/23 06:01:07;;;;;;;6.80;3.97;;;;;;;13.68;100.00;95227.06;5014778;28;20507;-58
2021/08/23 06:03:38;;;;;;;5.72;3.42;;;;;;;13.83;100.00;95235.00;5017630;28;20033;-60
2021/08/23 06:06:09;;;;;;;4.32;3.17;;;;;;;13.98;100.00;95232.19;5033199;28;20041;-59
2021/08/23 06:08:42;;;;;;;5.00;2.50;;;;;;;14.08;100.00;95236.69;5019961;28;20031;-59
2021/08/23 06:11:19;;;;;;;4.00;2.58;;;;;;;14.25;100.00;95244.34;5031830;28;20106;-59
2021/08/23 06:13:45;;;;;;;3.13;2.67;;;;;;;14.48;100.00;95241.72;4996320;28;20025;-59
2021/08/23 06:16:10;;;;;;;4.95;2.30;;;;;;;14.71;100.00;95242.81;5046270;28;20034;-59
2021/08/23 06:18:36;;;;;;;3.35;2.20;;;;;;;15.00;100.00;95237.38;5021515;28;20079;-59
2021/08/23 06:21:03;;;;;;;4.70;2.80;;;;;;;15.27;100.00;95241.34;5028123;28;20337;-58
2021/08/23 06:23:29;;;;;;;3.95;2.47;;;;;;;15.56;100.00;95233.91;5032310;28;20067;-57
2021/08/23 06:25:57;;;;;;;5.55;2.22;;;;;;;15.84;100.00;95237.56;5034027;28;20037;-59
2021/08/23 06:28:22;;;;;;;11.48;2.30;;;;;;;16.16;100.00;95227.88;5030768;28;20370;-56
2021/08/23 06:30:50;;;;;;;3.22;2.00;;;;;;;16.41;100.00;95223.94;5012907;28;20036;-55
2021/08/23 06:33:18;;;;;;;4.68;2.30;;;;;;;16.66;100.00;95211.84;5014076;28;20021;-59
2021/08/23 06:35:44;;;;;;;3.53;1.90;;;;;;;16.92;100.00;95195.94;5014184;28;20033;-59
2021/08/23 06:38:15;;;;;;;5.72;1.83;;;;;;;17.05;100.00;95193.22;5013937;28;20429;-59
2021/08/23 06:40:41;;;;;;;4.00;1.75;;;;;;;17.18;100.00;95166.44;5014133;28;20409;-58
2021/08/23 06:43:06;;;;;;;5.90;2.25;;;;;;;17.30;100.00;95147.75;5012487;28;20030;-59
2021/08/23 06:45:32;;;;;;;3.72;1.75;;;;;;;17.30;100.00;95121.50;5013854;28;20028;-60
2021/08/23 06:47:57;;;;;;;3.13;1.55;;;;;;;17.27;100.00;95086.13;5013913;28;20018;-59
2021/08/23 06:50:23;;;;;;;2.67;1.63;;;;;;;17.50;100.00;95047.09;5013758;28;20029;-58
2021/08/23 06:52:48;;;;;;;2.63;1.58;;;;;;;17.70;100.00;95016.03;5013467;28;20117;-59
2021/08/23 06:55:14;;;;;;;4.03;2.10;;;;;;;17.57;100.00;95001.41;5019626;28;20480;-57
2021/08/23 06:57:39;;;;;;;3.75;1.88;;;;;;;17.47;100.00;94988.13;5020968;28;20025;-59
2021/08/23 07:00:06;;;;;;;3.47;1.73;;;;;;;17.42;100.00;94990.19;5013497;28;20026;-59
2021/08/23 07:02:34;;;;;;;7.32;1.85;;;;;;;17.56;100.00;94988.97;5017274;28;20025;-58
2021/08/23 07:05:00;;;;;;;4.20;1.88;;;;;;;17.71;100.00;94995.94;5014014;28;20018;-59
2021/08/23 07:07:42;;;;;;;2.38;1.80;;;;;;;17.93;100.00;95017.56;5013467;28;20018;-57
2021/08/23 07:10:12;;;;;;;3.78;1.77;;;;;;;18.29;100.00;95037.44;5021359;28;20029;-60
2021/08/23 07:12:41;;;;;;;2.67;2.00;;;;;;;18.44;100.00;95062.22;5031668;28;20449;-57
2021/08/23 07:15:07;;;;;;;3.63;1.85;;;;;;;18.56;100.00;95099.59;5031923;28;20037;-59
2021/08/23 07:17:41;;;;;;;5.63;2.33;;;;;;;18.70;100.00;95124.72;5032785;28;20025;-57
2021/08/23 07:20:15;;;;;;;5.95;2.40;;;;;;;18.83;100.00;95144.69;5032869;28;20469;-57
2021/08/23 07:22:40;;;;;;;4.50;2.47;;;;;;;18.77;100.00;95170.38;5032802;28;20035;-59
2021/08/23 07:25:06;;;;;;;7.70;2.33;;;;;;;18.72;100.00;95192.22;5031165;28;20021;-60
2021/08/23 07:27:47;;;;;;;6.55;2.05;;;;;;;18.81;100.00;95202.00;5015714;28;20483;-60
2021/08/23 07:30:13;;;;;;;4.47;2.03;;;;;;;19.12;100.00;95222.88;5012805;28;20029;-60
2021/08/23 07:32:47;;;;;;;2.58;1.83;;;;;;;19.29;100.00;95268.25;5012957;28;20032;-53
2021/08/23 07:35:16;;;;;;;2.80;1.50;;;;;;;19.55;100.00;95315.38;5012889;28;20076;-56
2021/08/23 07:37:46;;;;;;;4.85;1.75;;;;;;;19.74;100.00;95398.53;5012978;28;20029;-59
2021/08/23 07:40:13;;;;;;;3.92;1.50;;;;;;;19.94;100.00;95438.72;5012908;28;20030;-58
2021/08/23 07:42:39;;;;;;;4.13;1.92;;;;;;;20.09;100.00;95470.13;5012692;28;20037;-59
2021/08/23 07:45:14;;;;;;;2.55;1.80;;;;;;;20.26;100.00;95486.47;5012940;28;20045;-57
2021/08/23 07:47:45;;;;;;;2.80;1.73;;;;;;;20.27;100.00;95480.72;5012772;28;20414;-56
2021/08/23 07:50:11;;;;;;;5.10;1.77;;;;;;;20.50;100.00;95524.16;5012653;28;20026;-57
2021/08/23 07:52:43;;;;;;;3.60;2.10;;;;;;;20.74;100.00;95535.44;5010996;28;20029;-57
2021/08/23 07:55:10;;;;;;;3.17;1.93;;;;;;;20.74;100.00;95546.34;5017729;28;20032;-59
2021/08/23 07:57:45;;;;;;;3.08;1.63;;;;;;;20.94;100.00;95599.34;5035806;28;20449;-55
2021/08/23 08:00:13;;;;;;;2.83;1.70;;;;;;;20.88;100.00;95646.94;5011285;28;20036;-55
2021/08/23 08:02:43;;;;;;;2.80;1.80;;;;;;;20.56;100.00;95631.78;5012380;28;20030;-57
2021/08/23 08:05:14;;;;;;;2.97;1.60;;;;;;;20.32;100.00;95634.06;5011382;28;20030;-54
2021/08/23 08:07:45;;;;;;;3.50;1.85;;;;;;;20.40;100.00;95598.69;5011070;28;20036;-56
2021/08/23 08:10:17;;;;;;;2.80;1.63;;;;;;;19.96;100.00;95592.25;5012422;28;20021;-54
2021/08/23 08:12:44;;;;;;;6.07;2.20;;;;;;;19.72;100.00;95563.81;5010833;28;20449;-55
2021/08/23 08:15:12;;;;;;;3.75;2.17;;;;;;;19.48;100.00;95561.41;5012289;28;20021;-57
2021/08/23 08:17:38;;;;;;;4.35;1.83;;;;;;;19.25;100.00;95533.44;5012212;28;20366;-54
2021/08/23 08:20:10;;;;;;;2.45;1.85;;;;;;;18.97;100.00;95547.13;5011977;28;20048;-56
2021/08/23 08:22:36;;;;;;;7.50;1.75;;;;;;;19.09;100.00;95527.56;5012113;28;20428;-57
2021/08/23 08:25:02;;;;;;;3.30;2.20;;;;;;;19.32;100.00;95520.22;5013599;28;20132;-57
2021/08/23 08:27:27;;;;;;;2.75;1.60;;;;;;;19.57;100.00;95516.91;5016256;28;20481;-54
2021/08/23 08:29:52;;;;;;;2.58;1.73;;;;;;;19.92;100.00;95509.72;5014224;28;20022;-59
2021/08/23 08:32:18;;;;;;;4.13;1.90;;;;;;;20.22;100.00;95550.81;5027304;28;20025;-58
2021/08/23 08:34:46;;;;;;;2.95;1.40;;;;;;;20.46;100.00;95558.59;5014510;28;20408;-55
2021/08/23 08:37:11;;;;;;;3.22;1.90;;;;;;;20.70;100.00;95575.28;5013637;28;20030;-57
2021/08/23 08:39:37;;;;;;;4.47;1.77;;;;;;;20.98;100.00;95575.03;4996886;28;20033;-57
2021/08/23 08:42:03;;;;;;;4.65;1.65;;;;;;;21.37;100.00;95576.81;5023078;28;20029;-56
2021/08/23 08:44:29;;;;;;;4.05;2.05;;;;;;;21.58;100.00;95650.56;5011643;28;20114;-57
2021/08/23 08:46:56;;;;;;;3.30;1.50;;;;;;;21.74;100.00;95680.91;5011880;28;20108;-56
2021/08/23 08:49:35;;;;;;;4.00;1.88;;;;;;;22.04;100.00;95687.28;5011746;28;20026;-58
2021/08/23 08:52:03;;;;;;;3.08;1.52;;;;;;;21.97;100.00;95726.75;5013087;28;20026;-57
2021/08/23 08:54:29;;;;;;;2.63;1.73;;;;;;;22.17;100.00;95710.91;5013979;28;20046;-57
2021/08/23 08:56:54;;;;;;;3.13;1.83;;;;;;;22.46;100.00;95702.00;5018291;28;20040;-58
2021/08/23 08:59:20;;;;;;;3.80;1.95;;;;;;;22.34;100.00;95716.31;5015385;28;20167;-57
2021/08/23 09:01:48;;;;;;;2.55;1.60;;;;;;;22.34;100.00;95729.94;5010890;28;20029;-59
2021/08/23 09:04:14;;;;;;;4.03;1.70;;;;;;;22.07;100.00;95755.69;5014600;28;20405;-57
2021/08/23 09:06:43;;;;;;;4.82;1.92;;;;;;;21.38;100.00;95739.19;5012879;28;20018;-57
2021/08/23 09:09:13;;;;;;;2.17;1.70;;;;;;;21.50;100.00;95706.72;5011995;28;20042;-58
2021/08/23 09:11:42;;;;;;;2.72;1.60;;;;;;;21.86;100.00;95690.03;5017983;28;20044;-58
2021/08/23 09:14:11;;;;;;;2.95;1.73;;;;;;;22.42;100.00;95699.13;5026691;28;20044;-56
2021/08/23 09:16:43;;;;;;;4.40;2.00;;;;;;;22.70;100.00;95723.31;5031461;28;20036;-58
2021/08/23 09:19:20;;;;;;;2.65;2.05;;;;;;;22.47;100.00;95759.00;5021208;28;20108;-58
2021/08/23 09:21:45;;;;;;;3.67;1.75;;;;;;;22.66;100.00;95772.28;5016356;28;20030;-55
2021/08/23 09:24:21;;;;;;;2.72;1.80;;;;;;;23.27;100.00;95720.19;5016932;28;20464;-58
2021/08/23 09:27:03;;;;;;;2.00;1.38;;;;;;;22.86;100.00;95765.34;5012683;28;20033;-57
2021/08/23 09:29:34;;;;;;;3.85;1.70;;;;;;;22.49;100.00;95808.63;5018665;28;20042;-58
2021/08/23 09:32:00;;;;;;;1.48;1.33;;;;;;;22.99;100.00;95750.69;5015526;28;20061;-58
2021/08/23 09:34:26;;;;;;;1.90;1.30;;;;;;;22.94;100.00;95799.25;5009878;28;20171;-56
2021/08/23 09:37:00;;;;;;;3.75;1.75;;;;;;;22.68;100.00;95777.41;5011694;28;20057;-58
2021/08/23 09:39:31;;;;;;;4.32;1.40;;;;;;;22.33;100.00;95743.94;5008501;28;20030;-58
2021/08/23 09:42:08;;;;;;;3.55;2.10;;;;;;;22.00;100.00;95739.75;5013962;28;20064;-56
2021/08/23 09:44:39;;;;;;;2.97;1.60;;;;;;;21.77;100.00;95705.59;5012713;28;20025;-56
2021/08/23 09:47:05;;;;;;;4.32;2.13;;;;;;;21.32;100.00;95692.25;5015926;28;20642;-57
2021/08/23 09:49:45;;;;;;;3.97;1.95;;;;;;;20.91;100.00;95695.31;5015485;28;20396;-54
2021/08/23 09:52:22;;;;;;;2.10;1.83;;;;;;;20.75;100.00;95669.63;5019498;28;20018;-54
2021/08/23 09:55:01;;;;;;;4.55;2.13;;;;;;;20.78;100.00;95656.19;5016214;28;20050;-54
2021/08/23 09:57:37;;;;;;;2.13;1.73;;;;;;;21.21;100.00;95663.66;5023361;28;20032;-54
2021/08/23 10:00:07;;;;;;;3.35;1.90;;;;;;;21.70;100.00;95662.44;5015267;28;20503;-57
2021/08/23 10:02:42;;;;;;;3.80;1.83;;;;;;;22.05;100.00;95686.16;5019474;28;20033;-56
2021/08/23 10:05:08;;;;;;;3.10;1.50;;;;;;;22.02;100.00;95758.53;5025786;28;20028;-57
2021/08/23 10:07:33;;;;;;;1.90;1.20;;;;;;;22.14;100.00;95796.94;5015488;28;20105;-59
2021/08/23 10:10:03;;;;;;;4.30;1.35;;;;;;;22.42;100.00;95812.97;5013695;28;20076;-58
2021/08/23 10:12:29;;;;;;;2.97;1.58;;;;;;;22.75;100.00;95832.34;5016656;28;20030;-57
2021/08/23 10:14:57;;;;;;;3.28;1.40;;;;;;;22.69;100.00;95853.56;5023109;28;20537;-56
2021/08/23 10:17:26;;;;;;;6.68;1.77;;;;;;;22.69;100.00;95878.16;5014862;28;20405;-57
2021/08/23 10:19:51;;;;;;;2.33;1.40;;;;;;;23.05;100.00;95812.22;5014228;28;20032;-57
2021/08/23 10:22:20;;;;;;;2.83;1.55;;;;;;;23.11;100.00;95845.63;5021566;28;20108;-58
2021/08/23 10:24:47;;;;;;;2.65;1.52;;;;;;;23.27;100.00;95865.84;5018189;28;20085;-56
2021/08/23 10:27:25;;;;;;;2.67;1.42;;;;;;;23.41;100.00;95885.56;5014213;28;20045;-57
2021/08/23 10:29:51;;;;;;;1.40;1.20;;;;;;;23.71;100.00;95891.91;5017215;28;20044;-59
2021/08/23 10:32:18;;;;;;;1.60;1.17;;;;;;;23.82;100.00;95886.06;5031900;28;20492;-58
2021/08/23 10:34:44;;;;;;;2.95;1.80;;;;;;;24.08;100.00;95883.19;5034428;28;20023;-57
2021/08/23 10:37:21;;;;;;;2.67;1.42;;;;;;;24.47;100.00;95862.81;5034450;28;20388;-57
2021/08/23 10:39:59;;;;;;;2.60;1.60;;;;;;;24.66;100.00;95821.25;5034026;28;20025;-55
2021/08/23 10:42:38;;;;;;;6.13;1.70;;;;;;;25.12;100.00;95885.94;5034453;28;20100;-59
2021/08/23 10:45:11;;;;;;;2.25;1.70;;;;;;;25.40;100.00;95903.41;5034371;28;20373;-56
2021/08/23 10:47:37;;;;;;;3.13;1.50;;;;;;;24.66;100.00;95895.22;5033144;28;20029;-56
2021/08/23 10:50:04;;;;;;;2.80;1.50;;;;;;;24.22;100.00;95902.91;5034215;28;20045;-57
2021/08/23 10:52:38;;;;;;;3.35;1.48;;;;;;;23.95;100.00;95905.00;5034335;28;20030;-56
2021/08/23 10:55:22;;;;;;;2.97;1.48;;;;;;;23.89;100.00;95906.31;5034724;28;20043;-59
2021/08/23 10:58:00;;;;;;;2.90;1.70;;;;;;;24.24;100.00;95885.03;5019422;28;20026;-56
2021/08/23 11:00:37;;;;;;;2.03;1.38;;;;;;;24.33;98.50;95928.00;5013825;28;20555;-58
2021/08/23 11:03:07;;;;;;;2.10;1.70;;;;;;;24.27;100.00;95903.50;5019059;28;20025;-57
2021/08/23 11:05:41;;;;;;;2.72;1.40;;;;;;;24.04;97.81;95929.56;5014057;28;20028;-55
2021/08/23 11:08:12;;;;;;;1.83;1.50;;;;;;;23.94;98.25;95924.47;5014191;28;20100;-58
2021/08/23 11:10:39;;;;;;;4.07;1.85;;;;;;;23.41;100.00;95873.84;5012718;28;20030;-58
2021/08/23 11:13:18;;;;;;;5.20;1.83;;;;;;;22.87;100.00;95839.91;5013841;28;20022;-57
2021/08/23 11:15:49;;;;;;;3.05;1.52;;;;;;;22.30;100.00;95846.34;5014130;28;20033;-58
2021/08/23 11:18:18;;;;;;;3.80;1.98;;;;;;;21.92;100.00;95835.22;5014090;28;20069;-57
2021/08/23 11:20:52;;;;;;;3.03;2.20;;;;;;;22.02;100.00;95806.81;5013891;28;20431;-55
2021/08/23 11:23:44;;;;;;;3.15;1.98;;;;;;;22.48;100.00;95796.09;5013893;28;20037;-57
2021/08/23 11:26:21;;;;;;;2.20;2.00;;;;;;;23.01;100.00;95807.72;5012664;28;20026;-56
2021/08/23 11:28:48;;;;;;;2.25;1.80;;;;;;;23.53;100.00;95819.25;5014059;28;20026;-54
2021/08/23 11:31:25;;;;;;;2.90;1.75;;;;;;;24.13;100.00;95822.78;5012499;28;20083;-55
2021/08/23 11:34:03;;;;;;;2.40;1.80;;;;;;;24.62;100.00;95850.44;5013530;28;20108;-57
2021/08/23 11:36:34;;;;;;;2.35;1.90;;;;;;;25.00;100.00;95851.03;5013759;28;20029;-55